Time;durP1;ratioP1;P1;durP2;ratioP2;P2;SDS_P1;SDS_P2;PMS_P1;PMS_P2;Temp;Humidity;BMP_temperature;BMP_pressure;BME280_temperature;BME280_humidity;BME280_pressure;Samples;Min_cycle;Max_cycle;Signal;HPM_P1;HPM_P2
2022/01/27 00:01:33;;;;;;;40.47;22.85;;;;;;;2.99;82.61;102715.00;5052546;28;19917;-55
2022/01/27 00:04:12;;;;;;;41.03;22.17;;;;;;;3.03;82.41;102705.34;5052882;28;20032;-54
2022/01/27 00:06:39;;;;;;;34.47;19.27;;;;;;;3.01;83.01;102710.16;5051330;28;20439;-54
2022/01/27 00:09:17;;;;;;;39.22;23.15;;;;;;;2.97;83.10;102697.97;5052096;28;20017;-51
2022/01/27 00:11:45;;;;;;;40.42;23.80;;;;;;;2.99;83.18;102673.16;5052670;28;20056;-53
2022/01/27 00:14:12;;;;;;;40.20;24.25;;;;;;;2.91;83.25;102663.25;5052767;28;20116;-54
2022/01/27 00:16:41;;;;;;;38.45;21.73;;;;;;;2.86;84.18;102655.69;5052835;28;20029;-55
2022/01/27 00:19:09;;;;;;;39.78;23.80;;;;;;;2.86;83.92;102661.16;5051844;28;20025;-51
2022/01/27 00:21:34;;;;;;;41.20;23.30;;;;;;;2.88;84.10;102653.59;5052084;28;20021;-50
2022/01/27 00:23:59;;;;;;;39.03;22.65;;;;;;;2.86;84.08;102661.16;5052453;28;20044;-49
2022/01/27 00:26:25;;;;;;;41.25;23.67;;;;;;;2.88;83.59;102660.97;5052953;28;20139;-51
2022/01/27 00:28:51;;;;;;;40.50;22.90;;;;;;;2.86;84.23;102672.09;5051355;28;20033;-53
2022/01/27 00:31:18;;;;;;;38.50;22.42;;;;;;;2.85;84.17;102675.88;5052424;28;20029;-51
2022/01/27 00:33:45;;;;;;;38.83;21.40;;;;;;;2.88;84.15;102680.91;5052734;28;20032;-54
2022/01/27 00:36:11;;;;;;;40.90;22.38;;;;;;;2.88;83.65;102669.97;5051980;28;20033;-52
2022/01/27 00:38:36;;;;;;;39.35;23.00;;;;;;;2.89;83.72;102665.34;5052543;28;20032;-51
2022/01/27 00:41:02;;;;;;;42.20;23.95;;;;;;;2.89;83.75;102655.28;5052602;28;20033;-53
2022/01/27 00:43:28;;;;;;;38.75;22.90;;;;;;;2.91;83.72;102649.59;5051331;28;20115;-51
2022/01/27 00:45:53;;;;;;;40.88;22.42;;;;;;;2.91;84.24;102649.59;5052138;28;20028;-53
2022/01/27 00:48:19;;;;;;;38.83;22.00;;;;;;;2.96;83.24;102649.81;5052356;28;20151;-51
2022/01/27 00:50:55;;;;;;;39.90;21.48;;;;;;;2.97;83.51;102659.69;5052611;28;20439;-52
2022/01/27 00:53:36;;;;;;;40.70;22.75;;;;;;;2.90;83.95;102648.75;5052028;28;20133;-52
2022/01/27 00:56:14;;;;;;;39.38;22.45;;;;;;;2.89;83.75;102643.47;5052565;28;20427;-53
2022/01/27 00:58:55;;;;;;;38.58;21.80;;;;;;;2.87;84.01;102637.41;5052315;28;20033;-52
2022/01/27 01:01:25;;;;;;;38.63;21.27;;;;;;;2.94;83.74;102641.78;5051857;28;20021;-48
2022/01/27 01:03:52;;;;;;;39.50;21.98;;;;;;;2.96;83.01;102633.41;5055799;28;20025;-53
2022/01/27 01:11:53;;;;;;;38.78;22.25;;;;;;;2.99;83.44;102618.47;5056557;28;20144;-51
2022/01/27 01:22:02;;;;;;;38.97;23.33;;;;;;;2.98;84.09;102609.41;5056097;28;20033;-54
2022/01/27 01:30:08;;;;;;;37.10;21.50;;;;;;;3.02;83.49;102601.66;5044716;28;20529;-53
2022/01/27 01:35:00;;;;;;;37.33;20.50;;;;;;;3.11;82.80;102608.56;5055738;28;20124;-54
2022/01/27 01:37:25;;;;;;;37.10;21.25;;;;;;;3.12;82.90;102586.47;5056215;28;20068;-52
2022/01/27 01:39:51;;;;;;;36.58;20.20;;;;;;;3.14;82.83;102577.22;5055165;28;20060;-51
2022/01/27 01:42:16;;;;;;;35.67;21.38;;;;;;;3.09;83.02;102561.44;5055963;28;20033;-54
2022/01/27 01:44:43;;;;;;;39.33;22.10;;;;;;;3.16;83.13;102566.91;5055380;28;20037;-53
2022/01/27 01:47:08;;;;;;;38.08;20.90;;;;;;;3.15;82.90;102570.69;5055326;28;20029;-51
2022/01/27 01:49:33;;;;;;;35.00;21.08;;;;;;;3.20;83.08;102577.22;5055180;28;20025;-53
2022/01/27 01:52:05;;;;;;;37.63;20.75;;;;;;;3.23;83.05;102589.63;5055095;28;20065;-50
2022/01/27 01:54:30;;;;;;;40.63;20.52;;;;;;;3.24;82.50;102577.63;5055614;28;20488;-50
2022/01/27 01:56:55;;;;;;;33.47;19.98;;;;;;;3.25;82.26;102584.78;5055612;28;20036;-54
2022/01/27 01:59:21;;;;;;;36.10;20.75;;;;;;;3.25;82.40;102576.56;5055692;28;20039;-52
2022/01/27 02:01:48;;;;;;;36.10;21.02;;;;;;;3.26;82.74;102584.56;5055204;28;20447;-51
2022/01/27 02:04:13;;;;;;;41.95;23.10;;;;;;;3.27;82.53;102578.03;5054428;28;20060;-52
2022/01/27 02:06:56;;;;;;;38.13;21.27;;;;;;;3.31;82.32;102563.94;5054744;28;20056;-50
2022/01/27 02:09:31;;;;;;;35.67;20.77;;;;;;;3.34;82.19;102538.84;5054201;28;20044;-50
2022/01/27 02:20:10;;;;;;;36.15;20.00;;;;;;;3.22;83.49;102539.53;5054957;28;20044;-51
2022/01/27 02:22:36;;;;;;;37.15;21.23;;;;;;;3.23;82.91;102543.94;5054840;28;20455;-54
2022/01/27 02:25:03;;;;;;;37.20;21.65;;;;;;;3.24;82.93;102522.91;5055115;28;20039;-55
2022/01/27 02:27:29;;;;;;;38.47;21.35;;;;;;;3.25;83.11;102536.38;5054797;28;20099;-53
2022/01/27 02:29:54;;;;;;;36.00;20.67;;;;;;;3.27;82.98;102534.25;5055024;28;20472;-54
2022/01/27 02:32:22;;;;;;;35.80;20.33;;;;;;;3.32;82.63;102533.63;5054937;28;20037;-54
2022/01/27 02:34:47;;;;;;;38.10;22.08;;;;;;;3.31;82.78;102542.06;5054300;28;20083;-54
2022/01/27 02:37:13;;;;;;;36.58;21.27;;;;;;;3.31;83.01;102539.31;5054564;28;20452;-51
2022/01/27 02:39:38;;;;;;;34.92;20.40;;;;;;;3.32;83.01;102535.50;5054486;28;20052;-57
2022/01/27 02:42:10;;;;;;;37.45;21.50;;;;;;;3.30;83.05;102522.03;5054686;28;20558;-51
2022/01/27 02:45:00;;;;;;;35.95;21.55;;;;;;;3.30;83.68;102513.84;5054628;28;20045;-49
2022/01/27 02:47:26;;;;;;;37.25;20.30;;;;;;;3.32;83.16;102519.94;5054215;28;20419;-50
2022/01/27 02:49:51;;;;;;;35.47;20.02;;;;;;;3.33;83.00;102513.41;5052579;28;20032;-50
2022/01/27 02:52:17;;;;;;;35.78;20.15;;;;;;;3.35;83.23;102507.72;5054458;28;20032;-58
2022/01/27 02:54:43;;;;;;;34.70;19.02;;;;;;;3.34;83.33;102498.69;5054731;28;20024;-54
2022/01/27 02:57:08;;;;;;;32.35;19.80;;;;;;;3.35;83.39;102488.56;5054427;28;20068;-53
2022/01/27 02:59:33;;;;;;;36.75;21.15;;;;;;;3.28;83.41;102481.25;5054316;28;20028;-53
2022/01/27 03:01:59;;;;;;;36.40;21.27;;;;;;;3.27;83.98;102485.03;5053577;28;20061;-54
2022/01/27 03:04:25;;;;;;;36.80;22.23;;;;;;;3.27;84.16;102482.28;5053281;28;20025;-53
2022/01/27 03:06:51;;;;;;;33.88;19.08;;;;;;;3.30;83.85;102491.13;5053819;28;20036;-53
2022/01/27 03:09:17;;;;;;;34.80;19.25;;;;;;;3.37;83.17;102475.50;5054016;28;20590;-54
2022/01/27 03:11:52;;;;;;;36.20;19.23;;;;;;;3.45;83.42;102471.69;5053210;28;20100;-53
2022/01/27 03:14:21;;;;;;;35.70;20.63;;;;;;;3.35;82.93;102472.16;5053271;28;20361;-53
2022/01/27 03:16:47;;;;;;;36.97;19.48;;;;;;;3.39;83.09;102468.75;5052948;28;20024;-53
2022/01/27 03:19:13;;;;;;;35.42;20.52;;;;;;;3.39;83.21;102470.66;5053061;28;20028;-52
2022/01/27 03:21:38;;;;;;;37.00;20.45;;;;;;;3.46;83.29;102473.34;5053006;28;20025;-53
2022/01/27 03:24:04;;;;;;;36.85;20.55;;;;;;;3.42;83.94;102472.94;5052736;28;20025;-51
2022/01/27 03:26:30;;;;;;;35.08;21.30;;;;;;;3.36;83.68;102465.63;5052751;28;20100;-54
2022/01/27 03:28:57;;;;;;;34.33;19.85;;;;;;;3.46;83.35;102465.16;5052811;28;20081;-53
2022/01/27 03:31:22;;;;;;;35.47;19.05;;;;;;;3.40;83.95;102456.75;5053185;28;20112;-52
2022/01/27 03:33:48;;;;;;;33.38;19.48;;;;;;;3.39;84.18;102467.94;5052654;28;20441;-53
2022/01/27 03:36:14;;;;;;;33.88;18.30;;;;;;;3.43;83.92;102455.47;5053085;28;20025;-52
2022/01/27 03:38:40;;;;;;;35.30;20.15;;;;;;;3.43;84.03;102453.59;5053645;28;20036;-54
2022/01/27 03:41:07;;;;;;;34.05;19.10;;;;;;;3.48;83.71;102460.31;5053438;28;20021;-52
2022/01/27 03:43:34;;;;;;;33.65;20.05;;;;;;;3.50;83.73;102455.44;5053504;28;20032;-53
2022/01/27 03:46:00;;;;;;;34.10;19.13;;;;;;;3.53;83.71;102446.81;5053619;28;20048;-53
2022/01/27 03:48:26;;;;;;;34.15;19.85;;;;;;;3.54;83.66;102454.78;5053098;28;20056;-54
2022/01/27 03:50:52;;;;;;;34.00;19.27;;;;;;;3.57;83.42;102450.78;5052557;28;20116;-51
2022/01/27 03:53:17;;;;;;;37.08;20.52;;;;;;;3.57;83.39;102446.16;5053341;28;20186;-51
2022/01/27 03:55:43;;;;;;;31.02;18.38;;;;;;;3.58;83.76;102444.25;5053167;28;20490;-53
2022/01/27 03:58:09;;;;;;;32.85;18.92;;;;;;;3.53;84.18;102433.97;5053412;28;20535;-53
2022/01/27 04:00:36;;;;;;;32.53;17.92;;;;;;;3.55;83.57;102428.25;5053122;28;20438;-50
2022/01/27 04:03:04;;;;;;;34.03;18.90;;;;;;;3.48;84.29;102411.91;5051692;28;20056;-52
2022/01/27 04:05:36;;;;;;;33.40;17.48;;;;;;;3.43;84.21;102404.34;5052623;28;20045;-54
2022/01/27 04:08:03;;;;;;;31.73;17.90;;;;;;;3.37;84.64;102407.13;5051938;28;20033;-54
2022/01/27 04:10:29;;;;;;;32.30;17.25;;;;;;;3.43;84.32;102407.09;5052602;28;20483;-55
2022/01/27 04:12:54;;;;;;;34.83;20.38;;;;;;;3.39;85.06;102411.31;5052571;28;20059;-53
2022/01/27 04:15:19;;;;;;;36.47;21.42;;;;;;;3.40;84.19;102403.97;5052645;28;20391;-53
2022/01/27 04:17:45;;;;;;;34.75;18.65;;;;;;;3.38;84.71;102395.13;5052874;28;20028;-53
2022/01/27 04:20:10;;;;;;;36.30;19.83;;;;;;;3.33;84.96;102394.94;5052684;28;20060;-54
2022/01/27 04:22:36;;;;;;;33.30;18.33;;;;;;;3.37;84.73;102391.53;5052838;28;20025;-51
2022/01/27 04:25:01;;;;;;;35.10;19.45;;;;;;;3.27;85.09;102396.63;5053039;28;20158;-53
2022/01/27 04:27:31;;;;;;;35.15;18.55;;;;;;;3.23;85.45;102390.78;5052934;28;20468;-53
2022/01/27 04:29:56;;;;;;;35.70;20.73;;;;;;;3.24;85.79;102384.25;5053392;28;20017;-50
2022/01/27 04:32:27;;;;;;;34.53;19.15;;;;;;;3.17;86.31;102374.38;5052524;28;20099;-53
2022/01/27 04:34:55;;;;;;;34.05;19.80;;;;;;;3.11;86.20;102374.22;5052330;28;20032;-53
2022/01/27 04:37:24;;;;;;;37.50;21.00;;;;;;;3.10;86.54;102369.81;5051714;28;20025;-52
2022/01/27 04:40:14;;;;;;;34.97;19.15;;;;;;;3.09;86.74;102376.31;5052380;28;20486;-54
2022/01/27 04:43:02;;;;;;;34.45;18.85;;;;;;;3.18;86.29;102384.28;5053132;28;20127;-54
2022/01/27 04:45:34;;;;;;;33.97;19.13;;;;;;;3.12;86.88;102381.38;5052970;28;20039;-53
2022/01/27 04:48:09;;;;;;;36.50;20.77;;;;;;;3.11;86.53;102371.47;5052627;28;20107;-54
2022/01/27 04:50:35;;;;;;;35.22;19.45;;;;;;;3.10;86.55;102364.34;5051569;28;20138;-52
2022/01/27 04:53:02;;;;;;;33.50;18.98;;;;;;;3.07;87.42;102367.50;5052243;28;20098;-50
2022/01/27 04:55:28;;;;;;;33.67;17.67;;;;;;;3.13;87.08;102368.53;5052582;28;20060;-54
2022/01/27 04:58:06;;;;;;;33.60;19.48;;;;;;;3.08;87.87;102360.16;5052509;28;20417;-54
2022/01/27 05:00:31;;;;;;;33.65;18.48;;;;;;;3.10;87.45;102367.06;5052516;28;20025;-55
2022/01/27 05:02:59;;;;;;;33.85;19.60;;;;;;;3.07;88.03;102356.56;5052288;28;20029;-56
2022/01/27 05:05:24;;;;;;;33.35;19.23;;;;;;;3.07;87.42;102337.41;5052282;28;20028;-56
2022/01/27 05:07:59;;;;;;;34.85;18.65;;;;;;;3.10;87.82;102341.63;5052006;28;20029;-53
2022/01/27 05:10:29;;;;;;;32.38;18.38;;;;;;;3.16;87.44;102334.44;5052675;28;20040;-55
2022/01/27 05:13:11;;;;;;;35.60;19.20;;;;;;;3.14;87.86;102331.91;5051067;28;20021;-54
2022/01/27 05:15:43;;;;;;;36.33;19.48;;;;;;;3.14;88.25;102340.13;5052020;28;20025;-55
2022/01/27 05:18:08;;;;;;;36.17;18.85;;;;;;;3.21;87.33;102337.34;5052102;28;20025;-55
2022/01/27 05:20:33;;;;;;;33.78;18.80;;;;;;;3.28;87.69;102336.25;5052016;28;20387;-55
2022/01/27 05:22:58;;;;;;;34.25;18.55;;;;;;;3.28;87.48;102322.59;5051861;28;20021;-55
2022/01/27 05:25:24;;;;;;;34.08;19.00;;;;;;;3.31;87.33;102313.09;5052088;28;20017;-55
2022/01/27 05:27:49;;;;;;;33.25;18.30;;;;;;;3.34;87.27;102306.34;5052138;28;20113;-53
2022/01/27 05:30:14;;;;;;;35.28;18.48;;;;;;;3.41;86.94;102312.59;5052172;28;20021;-54
2022/01/27 05:32:39;;;;;;;33.67;17.73;;;;;;;3.47;86.64;102306.25;5052015;28;20033;-54
2022/01/27 05:35:05;;;;;;;34.08;19.25;;;;;;;3.42;86.84;102301.44;5052219;28;20481;-53
2022/01/27 05:37:30;;;;;;;34.45;18.95;;;;;;;3.46;86.87;102295.50;5051620;28;20025;-55
2022/01/27 05:39:55;;;;;;;34.45;19.15;;;;;;;3.54;87.08;102301.56;5051982;28;20053;-54
2022/01/27 05:42:21;;;;;;;34.38;18.63;;;;;;;3.55;86.67;102292.28;5051872;28;20029;-54
2022/01/27 05:44:46;;;;;;;32.35;18.52;;;;;;;3.57;86.53;102294.78;5052196;28;20063;-54
2022/01/27 05:47:11;;;;;;;34.08;17.67;;;;;;;3.62;86.93;102294.13;5050881;28;20439;-53
2022/01/27 05:49:36;;;;;;;33.47;17.75;;;;;;;3.65;86.88;102310.09;5055990;28;20468;-51
2022/01/27 05:52:02;;;;;;;34.60;18.08;;;;;;;3.65;86.28;102291.78;5055210;28;20029;-54
2022/01/27 05:54:27;;;;;;;32.70;18.40;;;;;;;3.74;86.11;102300.56;5055487;28;20495;-54
2022/01/27 05:56:53;;;;;;;33.30;18.20;;;;;;;3.81;86.33;102298.59;5055516;28;20369;-52
2022/01/27 05:59:18;;;;;;;33.45;18.95;;;;;;;3.79;86.09;102302.63;5055427;28;20021;-54
2022/01/27 06:01:43;;;;;;;28.15;15.13;;;;;;;3.85;85.58;102291.59;5054681;28;20103;-53
2022/01/27 06:04:09;;;;;;;34.03;17.90;;;;;;;3.88;85.87;102290.31;5053533;28;20036;-54
2022/01/27 06:06:34;;;;;;;32.40;18.33;;;;;;;3.88;86.01;102287.56;5055213;28;20028;-54
2022/01/27 06:08:59;;;;;;;31.85;17.38;;;;;;;3.90;86.05;102274.50;5054516;28;20032;-53
2022/01/27 06:11:25;;;;;;;32.63;17.55;;;;;;;3.93;86.69;102289.63;5053976;28;20500;-54
2022/01/27 06:13:50;;;;;;;34.28;17.73;;;;;;;3.90;87.03;102280.81;5054699;28;20028;-53
2022/01/27 06:16:15;;;;;;;34.67;18.05;;;;;;;3.90;87.14;102283.53;5054955;28;20032;-54
2022/01/27 06:18:41;;;;;;;32.25;17.67;;;;;;;3.93;87.50;102275.94;5054713;28;20535;-51
2022/01/27 06:21:07;;;;;;;34.17;18.08;;;;;;;3.87;87.64;102267.56;5054604;28;20052;-52
2022/01/27 06:23:32;;;;;;;34.95;19.33;;;;;;;3.94;88.40;102278.44;5053132;28;20425;-53
2022/01/27 06:25:59;;;;;;;33.78;18.35;;;;;;;3.90;88.96;102274.50;5054792;28;20159;-53
2022/01/27 06:28:24;;;;;;;33.05;17.88;;;;;;;3.92;88.68;102271.53;5054558;28;20059;-50
2022/01/27 06:30:50;;;;;;;32.42;17.90;;;;;;;3.89;88.11;102268.19;5054643;28;20032;-53
2022/01/27 06:33:15;;;;;;;33.97;18.75;;;;;;;3.92;88.48;102266.88;5054599;28;20021;-53
2022/01/27 06:35:40;;;;;;;33.33;18.60;;;;;;;3.94;88.55;102270.22;5054823;28;20112;-51
2022/01/27 06:38:06;;;;;;;36.05;17.83;;;;;;;3.86;89.01;102268.66;5054585;28;20025;-53
2022/01/27 06:40:32;;;;;;;29.27;17.67;;;;;;;3.87;88.71;102267.56;5055022;28;20384;-53
2022/01/27 06:42:57;;;;;;;32.20;18.10;;;;;;;3.92;88.75;102258.66;5054842;28;20023;-53
2022/01/27 06:45:22;;;;;;;35.88;19.45;;;;;;;3.89;88.98;102254.47;5054638;28;20075;-52
2022/01/27 06:47:47;;;;;;;32.80;17.35;;;;;;;3.90;89.00;102256.16;5053808;28;20041;-52
2022/01/27 06:50:13;;;;;;;33.92;18.48;;;;;;;3.91;89.13;102262.50;5054019;28;20021;-52
2022/01/27 06:52:39;;;;;;;37.33;18.83;;;;;;;3.89;89.31;102259.13;5054375;28;20048;-51
2022/01/27 06:55:05;;;;;;;34.90;18.38;;;;;;;3.87;89.93;102253.88;5054679;28;20021;-52
2022/01/27 06:57:31;;;;;;;34.13;18.05;;;;;;;3.97;88.98;102260.75;5054327;28;20515;-53
2022/01/27 06:59:56;;;;;;;33.22;16.90;;;;;;;4.00;88.85;102250.19;5053411;28;20052;-52
2022/01/27 07:02:21;;;;;;;34.17;18.20;;;;;;;3.97;89.40;102260.75;5054357;28;20029;-52
2022/01/27 07:04:47;;;;;;;33.92;17.33;;;;;;;4.00;89.37;102254.81;5054593;28;20091;-53
2022/01/27 07:07:13;;;;;;;34.10;18.17;;;;;;;4.04;89.25;102256.03;5053474;28;20428;-53
2022/01/27 07:09:39;;;;;;;33.60;17.38;;;;;;;4.02;89.49;102244.47;5053981;28;20025;-53
2022/01/27 07:12:04;;;;;;;35.80;18.42;;;;;;;4.08;89.22;102248.19;5054433;28;20029;-53
2022/01/27 07:14:32;;;;;;;35.60;19.55;;;;;;;4.08;89.07;102248.19;5054263;28;20029;-51
2022/01/27 07:16:57;;;;;;;35.05;17.90;;;;;;;4.04;89.55;102250.56;5054261;28;20028;-52
2022/01/27 07:19:23;;;;;;;32.45;17.80;;;;;;;4.08;89.23;102257.25;5054085;28;20020;-53
2022/01/27 07:21:48;;;;;;;35.55;18.50;;;;;;;4.07;89.29;102252.81;5054065;28;20025;-51
2022/01/27 07:24:14;;;;;;;33.25;18.73;;;;;;;4.11;89.42;102273.22;5053432;28;20025;-51
2022/01/27 07:26:39;;;;;;;34.10;17.30;;;;;;;4.14;89.00;102275.53;5053431;28;20040;-54
2022/01/27 07:29:04;;;;;;;35.40;18.30;;;;;;;4.19;88.74;102270.19;5053659;28;20025;-51
2022/01/27 07:31:29;;;;;;;36.10;18.95;;;;;;;4.22;88.52;102275.22;5052845;28;20468;-52
2022/01/27 07:33:55;;;;;;;34.55;19.17;;;;;;;4.19;89.41;102283.88;5053267;28;20024;-55
2022/01/27 07:36:20;;;;;;;36.88;18.50;;;;;;;4.17;88.95;102275.03;5053775;28;20476;-52
2022/01/27 07:38:47;;;;;;;38.38;20.35;;;;;;;4.21;88.97;102270.78;5052571;28;20112;-53
2022/01/27 07:41:13;;;;;;;37.28;19.02;;;;;;;4.22;89.04;102280.69;5053544;28;20029;-55
2022/01/27 07:43:40;;;;;;;34.60;18.70;;;;;;;4.31;89.13;102266.69;5053741;28;20032;-56
2022/01/27 07:46:06;;;;;;;35.72;19.33;;;;;;;4.31;89.40;102266.69;5053849;28;20088;-58
2022/01/27 07:48:31;;;;;;;36.17;20.42;;;;;;;4.26;90.77;102261.91;5053919;28;20464;-53
2022/01/27 07:50:57;;;;;;;36.13;20.23;;;;;;;4.32;90.50;102276.59;5059759;28;20036;-54
2022/01/27 07:53:22;;;;;;;37.67;20.90;;;;;;;4.26;91.70;102272.00;5066818;28;20072;-52
2022/01/27 07:55:48;;;;;;;37.47;20.75;;;;;;;4.29;91.20;102274.28;5032421;28;20489;-53
2022/01/27 07:58:13;;;;;;;39.05;20.45;;;;;;;4.28;91.56;102287.16;5031400;28;20036;-53
2022/01/27 08:00:39;;;;;;;41.00;20.38;;;;;;;4.29;91.97;102279.78;5031221;28;20483;-52
2022/01/27 08:03:04;;;;;;;36.63;20.15;;;;;;;4.30;91.92;102278.72;5031240;28;20029;-53
2022/01/27 08:05:30;;;;;;;35.45;18.63;;;;;;;4.31;92.67;102277.66;5031347;28;20029;-53
2022/01/27 08:07:55;;;;;;;37.53;19.80;;;;;;;4.26;92.97;102275.59;5031088;28;20026;-54
2022/01/27 08:10:20;;;;;;;37.65;20.25;;;;;;;4.25;93.88;102273.91;5030844;28;20040;-54
2022/01/27 08:12:46;;;;;;;40.65;20.42;;;;;;;4.21;94.21;102278.16;5029452;28;20116;-55
2022/01/27 08:15:12;;;;;;;36.85;21.35;;;;;;;4.19;94.12;102277.56;5031052;28;20072;-54
2022/01/27 08:17:38;;;;;;;39.28;20.25;;;;;;;4.20;94.56;102271.03;5031009;28;20099;-53
2022/01/27 08:20:04;;;;;;;42.50;21.92;;;;;;;4.16;95.34;102270.63;5030945;28;20025;-52
2022/01/27 08:22:29;;;;;;;40.78;20.17;;;;;;;4.20;95.26;102282.00;5041266;28;20088;-54
2022/01/27 08:24:55;;;;;;;41.00;22.10;;;;;;;4.17;95.46;102275.03;5048477;28;20117;-53
2022/01/27 08:27:25;;;;;;;37.42;19.73;;;;;;;4.16;95.84;102276.09;5050780;28;20052;-54
2022/01/27 08:29:56;;;;;;;41.90;23.77;;;;;;;4.17;96.04;102275.03;5050641;28;20028;-54
2022/01/27 08:32:30;;;;;;;38.35;21.25;;;;;;;4.18;95.38;102267.69;5050810;28;20489;-55
2022/01/27 08:34:56;;;;;;;40.05;21.50;;;;;;;4.16;96.45;102267.06;5050706;28;20033;-53
2022/01/27 08:37:21;;;;;;;37.97;20.85;;;;;;;4.22;96.17;102263.41;5050532;28;20028;-54
2022/01/27 08:39:47;;;;;;;38.40;20.35;;;;;;;4.22;96.14;102269.72;5050403;28;20499;-55
2022/01/27 08:42:14;;;;;;;37.47;20.67;;;;;;;4.29;95.76;102263.31;5050446;28;20075;-55
2022/01/27 08:44:40;;;;;;;38.53;20.15;;;;;;;4.29;96.12;102268.81;5050583;28;20044;-52
2022/01/27 08:47:06;;;;;;;38.20;21.25;;;;;;;4.28;96.27;102261.66;5050424;28;20028;-55
2022/01/27 08:49:31;;;;;;;35.58;19.42;;;;;;;4.30;96.34;102270.50;5050559;28;20040;-54
2022/01/27 08:51:57;;;;;;;42.05;22.83;;;;;;;4.31;96.72;102270.25;5050243;28;20025;-55
2022/01/27 08:54:23;;;;;;;37.65;20.98;;;;;;;4.33;96.47;102257.16;5069860;28;20036;-54
2022/01/27 08:56:48;;;;;;;39.67;21.38;;;;;;;4.39;96.59;102271.84;5070577;28;20052;-56
2022/01/27 08:59:16;;;;;;;36.25;20.38;;;;;;;4.37;96.81;102263.88;5070340;28;20020;-53
2022/01/27 09:01:42;;;;;;;40.33;20.17;;;;;;;4.41;97.01;102266.97;5069011;28;20079;-52
2022/01/27 09:04:08;;;;;;;39.45;20.80;;;;;;;4.43;97.17;102269.47;5070310;28;20617;-54
2022/01/27 09:06:34;;;;;;;38.25;20.55;;;;;;;4.48;96.80;102270.47;5070566;28;20040;-54
2022/01/27 09:09:00;;;;;;;34.95;18.73;;;;;;;4.42;97.03;102249.47;5070110;28;20472;-54
2022/01/27 09:11:28;;;;;;;38.95;21.58;;;;;;;4.49;97.31;102263.94;5066903;28;20263;-54
2022/01/27 09:13:55;;;;;;;40.17;21.17;;;;;;;4.56;97.02;102261.13;5048633;28;20479;-55
2022/01/27 09:16:20;;;;;;;38.85;21.40;;;;;;;4.56;97.23;102255.63;5050124;28;20040;-54
2022/01/27 09:18:45;;;;;;;35.67;19.42;;;;;;;4.59;96.90;102271.59;5050648;28;20025;-53
2022/01/27 09:21:16;;;;;;;36.65;21.10;;;;;;;4.63;97.11;102267.34;5050160;28;20469;-55
2022/01/27 09:23:41;;;;;;;37.58;20.85;;;;;;;4.58;97.55;102260.88;5052749;28;20431;-52
2022/01/27 09:26:10;;;;;;;38.13;19.35;;;;;;;4.66;97.27;102257.81;5052617;28;20475;-52
2022/01/27 09:28:35;;;;;;;33.75;19.00;;;;;;;4.63;97.84;102250.06;5053997;28;20032;-53
2022/01/27 09:31:01;;;;;;;34.30;19.08;;;;;;;4.66;97.91;102252.31;5053578;28;20032;-53
2022/01/27 09:33:27;;;;;;;38.17;20.80;;;;;;;4.64;98.35;102255.31;5054071;28;20032;-51
2022/01/27 09:35:52;;;;;;;35.10;19.67;;;;;;;4.66;98.34;102249.59;5052985;28;20507;-54
2022/01/27 09:38:18;;;;;;;36.35;20.92;;;;;;;4.67;98.92;102252.13;5056272;28;20457;-55
2022/01/27 09:40:47;;;;;;;36.08;21.08;;;;;;;4.73;98.56;102261.28;5056273;28;20032;-54
2022/01/27 09:43:13;;;;;;;34.72;20.23;;;;;;;4.72;98.52;102259.63;5056340;28;20033;-55
2022/01/27 09:45:39;;;;;;;34.67;19.42;;;;;;;4.73;99.34;102264.03;5056157;28;20493;-55
2022/01/27 09:48:13;;;;;;;36.80;19.52;;;;;;;4.77;98.89;102258.94;5055643;28;20041;-54
2022/01/27 09:53:10;;;;;;;33.42;18.90;;;;;;;4.82;99.02;102259.91;5055434;28;20045;-52
2022/01/27 09:55:36;;;;;;;34.38;19.75;;;;;;;4.84;98.89;102266.00;5055502;28;20484;-54
2022/01/27 09:58:01;;;;;;;29.90;17.55;;;;;;;4.86;99.03;102265.78;5054184;28;20033;-52
2022/01/27 10:00:27;;;;;;;34.83;18.17;;;;;;;4.90;99.26;102269.72;5055194;28;20070;-54
2022/01/27 10:03:16;;;;;;;34.88;19.33;;;;;;;4.94;99.66;102275.56;5055274;28;20377;-51
2022/01/27 10:05:43;;;;;;;34.92;20.17;;;;;;;4.90;99.60;102266.16;5055491;28;20025;-54
2022/01/27 10:08:18;;;;;;;33.45;17.88;;;;;;;5.03;99.54;102274.16;5055235;28;20021;-55
2022/01/27 10:10:46;;;;;;;33.60;18.67;;;;;;;4.87;99.97;102255.63;5055329;28;20031;-55
2022/01/27 10:13:30;;;;;;;32.15;18.33;;;;;;;5.00;100.00;102260.94;5055110;28;20480;-55
2022/01/27 10:15:56;;;;;;;31.45;16.92;;;;;;;5.00;100.00;102263.69;5055373;28;20025;-54
2022/01/27 10:18:25;;;;;;;32.28;17.23;;;;;;;5.08;100.00;102257.00;5055344;28;20033;-51
2022/01/27 10:21:05;;;;;;;29.10;15.60;;;;;;;5.10;100.00;102265.84;5053827;28;20476;-54
2022/01/27 10:23:34;;;;;;;31.80;18.23;;;;;;;5.05;100.00;102268.47;5055072;28;20037;-52
2022/01/27 10:26:13;;;;;;;33.47;18.45;;;;;;;5.09;100.00;102265.03;5054869;28;20104;-51
2022/01/27 10:28:47;;;;;;;31.13;17.63;;;;;;;5.09;100.00;102267.75;5054996;28;20029;-54
2022/01/27 10:31:20;;;;;;;30.52;17.50;;;;;;;5.13;100.00;102257.97;5055048;28;20078;-53
2022/01/27 10:33:50;;;;;;;31.58;17.40;;;;;;;5.13;100.00;102277.19;5054883;28;20153;-55
2022/01/27 10:36:20;;;;;;;28.80;18.17;;;;;;;5.07;100.00;102263.56;5054629;28;20494;-54
2022/01/27 10:38:46;;;;;;;27.75;15.75;;;;;;;5.23;100.00;102273.88;5054254;28;20036;-53
2022/01/27 10:41:11;;;;;;;29.88;16.50;;;;;;;5.20;100.00;102265.25;5053725;28;20021;-54
2022/01/27 10:43:36;;;;;;;29.15;16.40;;;;;;;5.23;100.00;102268.41;5054061;28;20430;-57
2022/01/27 10:46:14;;;;;;;27.23;15.35;;;;;;;5.17;100.00;102260.25;5054651;28;20056;-55
2022/01/27 10:48:43;;;;;;;28.95;15.60;;;;;;;5.24;100.00;102272.78;5054463;28;20060;-54
2022/01/27 10:51:17;;;;;;;28.08;15.80;;;;;;;5.29;100.00;102274.84;5054399;28;20036;-54
2022/01/27 10:53:56;;;;;;;25.58;13.18;;;;;;;5.33;100.00;102262.31;5054298;28;20080;-54
2022/01/27 10:56:24;;;;;;;26.75;15.25;;;;;;;5.36;100.00;102258.25;5054482;28;20040;-55
2022/01/27 10:58:50;;;;;;;26.65;15.00;;;;;;;5.40;100.00;102270.44;5054100;28;20056;-55
2022/01/27 11:01:24;;;;;;;26.45;13.43;;;;;;;5.46;100.00;102274.97;5054091;28;20035;-55
2022/01/27 11:03:51;;;;;;;28.08;15.77;;;;;;;5.49;100.00;102280.00;5044760;28;20095;-55
2022/01/27 11:06:16;;;;;;;28.73;14.90;;;;;;;5.53;100.00;102264.72;5032343;28;20091;-55
2022/01/27 11:08:42;;;;;;;28.40;13.95;;;;;;;5.51;100.00;102263.28;5032293;28;20026;-54
2022/01/27 11:11:08;;;;;;;32.55;18.60;;;;;;;5.56;100.00;102252.44;5032129;28;20040;-54
2022/01/27 11:13:35;;;;;;;29.27;16.45;;;;;;;5.57;100.00;102251.38;5031817;28;20061;-53
2022/01/27 11:16:03;;;;;;;28.52;15.55;;;;;;;5.57;100.00;102254.13;5031984;28;20036;-54
2022/01/27 11:18:30;;;;;;;27.60;15.48;;;;;;;5.62;100.00;102243.25;5030400;28;20391;-54
2022/01/27 11:24:01;;;;;;;27.95;16.00;;;;;;;5.73;100.00;102245.16;5051561;28;20041;-53
2022/01/27 11:26:27;;;;;;;27.70;15.75;;;;;;;5.76;100.00;102236.44;5051886;28;20033;-54
2022/01/27 11:28:56;;;;;;;25.95;15.20;;;;;;;5.76;100.00;102230.13;5051594;28;20048;-53
2022/01/27 11:31:49;;;;;;;26.75;14.38;;;;;;;5.81;100.00;102240.38;5051564;28;20108;-54
2022/01/27 11:34:14;;;;;;;29.05;15.23;;;;;;;5.81;100.00;102230.22;5049411;28;20148;-53
2022/01/27 11:37:00;;;;;;;27.77;15.00;;;;;;;5.83;100.00;102221.75;5050641;28;20558;-52
2022/01/27 11:39:46;;;;;;;30.88;18.00;;;;;;;5.89;100.00;102220.78;5049512;28;20036;-54
2022/01/27 11:42:11;;;;;;;30.13;17.13;;;;;;;5.87;100.00;102221.03;5049841;28;20036;-54
2022/01/27 11:44:37;;;;;;;26.50;14.10;;;;;;;5.93;100.00;102217.31;5050955;28;20546;-54
2022/01/27 11:47:13;;;;;;;28.48;15.10;;;;;;;5.95;100.00;102217.09;5050573;28;20021;-54
2022/01/27 11:50:03;;;;;;;28.13;15.05;;;;;;;5.91;100.00;102213.97;5049339;28;20029;-54
2022/01/27 11:52:33;;;;;;;26.33;14.63;;;;;;;5.97;100.00;102211.34;5048701;28;20060;-53
2022/01/27 11:55:23;;;;;;;25.95;13.40;;;;;;;6.05;100.00;102216.50;5051127;28;20021;-54